sensor_id;sensor_type;location;lat;lon;timestamp;P1;durP1;ratioP1;P2;durP2;ratioP2
10715;SDS011;5409;42.620;23.316;2023-07-20T00:02:03;4.40;;;2.40;;
10715;SDS011;5409;42.620;23.316;2023-07-20T00:04:32;5.82;;;2.63;;
10715;SDS011;5409;42.620;23.316;2023-07-20T00:06:59;5.00;;;2.75;;
10715;SDS011;5409;42.620;23.316;2023-07-20T00:09:26;5.88;;;2.58;;
10715;SDS011;5409;42.620;23.316;2023-07-20T00:11:53;5.95;;;2.72;;
10715;SDS011;5409;42.620;23.316;2023-07-20T00:14:21;5.25;;;2.45;;
10715;SDS011;5409;42.620;23.316;2023-07-20T00:16:49;6.07;;;2.65;;
10715;SDS011;5409;42.620;23.316;2023-07-20T00:19:20;6.10;;;2.83;;
10715;SDS011;5409;42.620;23.316;2023-07-20T00:21:47;4.93;;;2.83;;
10715;SDS011;5409;42.620;23.316;2023-07-20T00:24:14;6.55;;;3.00;;
10715;SDS011;5409;42.620;23.316;2023-07-20T00:26:41;6.05;;;3.17;;
10715;SDS011;5409;42.620;23.316;2023-07-20T00:29:07;7.93;;;3.10;;
10715;SDS011;5409;42.620;23.316;2023-07-20T00:31:36;10.32;;;2.90;;
10715;SDS011;5409;42.620;23.316;2023-07-20T00:34:03;4.32;;;2.75;;
10715;SDS011;5409;42.620;23.316;2023-07-20T00:36:29;6.75;;;2.60;;
10715;SDS011;5409;42.620;23.316;2023-07-20T00:38:56;5.25;;;2.85;;
10715;SDS011;5409;42.620;23.316;2023-07-20T00:41:23;6.70;;;3.00;;
10715;SDS011;5409;42.620;23.316;2023-07-20T00:43:50;4.75;;;2.65;;
10715;SDS011;5409;42.620;23.316;2023-07-20T00:46:17;6.10;;;2.63;;
10715;SDS011;5409;42.620;23.316;2023-07-20T00:48:45;6.22;;;2.85;;
10715;SDS011;5409;42.620;23.316;2023-07-20T00:51:12;6.55;;;2.63;;
10715;SDS011;5409;42.620;23.316;2023-07-20T00:53:39;5.97;;;2.88;;
10715;SDS011;5409;42.620;23.316;2023-07-20T00:56:06;5.82;;;3.50;;
10715;SDS011;5409;42.620;23.316;2023-07-20T00:58:34;5.15;;;3.08;;
10715;SDS011;5409;42.620;23.316;2023-07-20T01:01:01;5.65;;;2.53;;
10715;SDS011;5409;42.620;23.316;2023-07-20T01:03:27;5.60;;;2.90;;
10715;SDS011;5409;42.620;23.316;2023-07-20T01:05:57;6.22;;;2.83;;
10715;SDS011;5409;42.620;23.316;2023-07-20T01:08:32;5.18;;;3.08;;
10715;SDS011;5409;42.620;23.316;2023-07-20T01:11:06;6.18;;;2.85;;
10715;SDS011;5409;42.620;23.316;2023-07-20T01:13:38;10.77;;;2.70;;
10715;SDS011;5409;42.620;23.316;2023-07-20T01:16:06;7.47;;;3.35;;
10715;SDS011;5409;42.620;23.316;2023-07-20T01:18:32;7.10;;;3.50;;
10715;SDS011;5409;42.620;23.316;2023-07-20T01:21:02;6.82;;;2.60;;
10715;SDS011;5409;42.620;23.316;2023-07-20T01:26:39;7.07;;;2.67;;
10715;SDS011;5409;42.620;23.316;2023-07-20T01:29:33;9.52;;;2.80;;
10715;SDS011;5409;42.620;23.316;2023-07-20T01:32:18;6.00;;;3.13;;
10715;SDS011;5409;42.620;23.316;2023-07-20T01:34:47;8.43;;;2.75;;
10715;SDS011;5409;42.620;23.316;2023-07-20T01:37:18;9.27;;;2.85;;
10715;SDS011;5409;42.620;23.316;2023-07-20T01:39:50;6.03;;;2.90;;
10715;SDS011;5409;42.620;23.316;2023-07-20T01:42:20;8.77;;;2.97;;
10715;SDS011;5409;42.620;23.316;2023-07-20T01:44:50;5.75;;;2.97;;
10715;SDS011;5409;42.620;23.316;2023-07-20T01:47:18;5.65;;;3.10;;
10715;SDS011;5409;42.620;23.316;2023-07-20T01:49:45;8.98;;;3.33;;
10715;SDS011;5409;42.620;23.316;2023-07-20T01:52:12;5.10;;;2.80;;
10715;SDS011;5409;42.620;23.316;2023-07-20T01:54:40;8.05;;;3.20;;
10715;SDS011;5409;42.620;23.316;2023-07-20T01:57:07;6.15;;;3.30;;
10715;SDS011;5409;42.620;23.316;2023-07-20T01:59:33;8.93;;;3.20;;
10715;SDS011;5409;42.620;23.316;2023-07-20T02:02:00;6.68;;;3.17;;
10715;SDS011;5409;42.620;23.316;2023-07-20T02:04:28;9.98;;;3.28;;
10715;SDS011;5409;42.620;23.316;2023-07-20T02:06:55;7.03;;;2.97;;
10715;SDS011;5409;42.620;23.316;2023-07-20T02:09:21;7.43;;;3.20;;
10715;SDS011;5409;42.620;23.316;2023-07-20T02:11:48;6.85;;;3.10;;
10715;SDS011;5409;42.620;23.316;2023-07-20T02:14:15;4.47;;;2.85;;
10715;SDS011;5409;42.620;23.316;2023-07-20T02:16:42;4.97;;;2.67;;
10715;SDS011;5409;42.620;23.316;2023-07-20T02:19:08;7.05;;;2.70;;
10715;SDS011;5409;42.620;23.316;2023-07-20T02:21:37;8.60;;;2.83;;
10715;SDS011;5409;42.620;23.316;2023-07-20T02:24:04;6.15;;;2.83;;
10715;SDS011;5409;42.620;23.316;2023-07-20T02:26:32;7.53;;;2.80;;
10715;SDS011;5409;42.620;23.316;2023-07-20T02:28:58;4.93;;;2.60;;
10715;SDS011;5409;42.620;23.316;2023-07-20T02:31:25;10.30;;;2.90;;
10715;SDS011;5409;42.620;23.316;2023-07-20T02:33:52;6.93;;;2.53;;
10715;SDS011;5409;42.620;23.316;2023-07-20T02:36:18;9.27;;;2.85;;
10715;SDS011;5409;42.620;23.316;2023-07-20T02:38:46;4.72;;;2.60;;
10715;SDS011;5409;42.620;23.316;2023-07-20T02:41:13;9.82;;;2.63;;
10715;SDS011;5409;42.620;23.316;2023-07-20T02:43:40;6.82;;;2.88;;
10715;SDS011;5409;42.620;23.316;2023-07-20T02:46:06;8.55;;;2.47;;
10715;SDS011;5409;42.620;23.316;2023-07-20T02:48:33;7.18;;;2.63;;
10715;SDS011;5409;42.620;23.316;2023-07-20T02:51:00;4.40;;;2.40;;
10715;SDS011;5409;42.620;23.316;2023-07-20T02:53:27;4.60;;;2.70;;
10715;SDS011;5409;42.620;23.316;2023-07-20T02:55:55;6.00;;;2.40;;
10715;SDS011;5409;42.620;23.316;2023-07-20T02:58:21;8.43;;;3.03;;
10715;SDS011;5409;42.620;23.316;2023-07-20T03:00:48;7.25;;;2.60;;
10715;SDS011;5409;42.620;23.316;2023-07-20T03:03:15;5.30;;;2.80;;
10715;SDS011;5409;42.620;23.316;2023-07-20T03:05:41;5.20;;;2.65;;
10715;SDS011;5409;42.620;23.316;2023-07-20T03:08:08;7.57;;;2.30;;
10715;SDS011;5409;42.620;23.316;2023-07-20T03:10:38;7.78;;;2.20;;
10715;SDS011;5409;42.620;23.316;2023-07-20T03:13:07;7.20;;;2.47;;
10715;SDS011;5409;42.620;23.316;2023-07-20T03:15:34;8.20;;;2.60;;
10715;SDS011;5409;42.620;23.316;2023-07-20T03:18:00;6.30;;;2.38;;
10715;SDS011;5409;42.620;23.316;2023-07-20T03:20:28;8.50;;;2.75;;
10715;SDS011;5409;42.620;23.316;2023-07-20T03:22:54;5.82;;;2.60;;
10715;SDS011;5409;42.620;23.316;2023-07-20T03:25:21;7.07;;;2.28;;
10715;SDS011;5409;42.620;23.316;2023-07-20T03:27:48;5.95;;;2.30;;
10715;SDS011;5409;42.620;23.316;2023-07-20T03:30:16;7.53;;;2.40;;
10715;SDS011;5409;42.620;23.316;2023-07-20T03:32:43;4.25;;;2.40;;
10715;SDS011;5409;42.620;23.316;2023-07-20T03:35:09;9.48;;;2.78;;
10715;SDS011;5409;42.620;23.316;2023-07-20T03:37:36;5.78;;;2.78;;
10715;SDS011;5409;42.620;23.316;2023-07-20T03:40:03;7.75;;;3.25;;
10715;SDS011;5409;42.620;23.316;2023-07-20T03:42:32;9.23;;;2.72;;
10715;SDS011;5409;42.620;23.316;2023-07-20T03:44:59;6.97;;;2.80;;
10715;SDS011;5409;42.620;23.316;2023-07-20T03:47:27;6.80;;;2.60;;
10715;SDS011;5409;42.620;23.316;2023-07-20T03:49:54;9.68;;;2.75;;
10715;SDS011;5409;42.620;23.316;2023-07-20T03:52:20;6.93;;;2.75;;
10715;SDS011;5409;42.620;23.316;2023-07-20T03:54:47;6.30;;;2.38;;
10715;SDS011;5409;42.620;23.316;2023-07-20T03:57:14;5.82;;;2.55;;
10715;SDS011;5409;42.620;23.316;2023-07-20T03:59:44;7.43;;;2.92;;
10715;SDS011;5409;42.620;23.316;2023-07-20T04:02:11;4.20;;;1.73;;
10715;SDS011;5409;42.620;23.316;2023-07-20T04:04:40;8.90;;;2.42;;
10715;SDS011;5409;42.620;23.316;2023-07-20T04:07:06;5.13;;;2.47;;
10715;SDS011;5409;42.620;23.316;2023-07-20T04:09:33;2.67;;;2.17;;
10715;SDS011;5409;42.620;23.316;2023-07-20T04:12:00;6.65;;;2.90;;
10715;SDS011;5409;42.620;23.316;2023-07-20T04:14:26;9.00;;;3.05;;
10715;SDS011;5409;42.620;23.316;2023-07-20T04:16:53;8.80;;;3.25;;
10715;SDS011;5409;42.620;23.316;2023-07-20T04:19:20;4.65;;;2.40;;
10715;SDS011;5409;42.620;23.316;2023-07-20T04:21:48;6.40;;;3.00;;
10715;SDS011;5409;42.620;23.316;2023-07-20T04:24:15;5.80;;;3.40;;
10715;SDS011;5409;42.620;23.316;2023-07-20T04:26:41;7.05;;;3.25;;
10715;SDS011;5409;42.620;23.316;2023-07-20T04:29:08;8.75;;;3.20;;
10715;SDS011;5409;42.620;23.316;2023-07-20T04:31:35;8.60;;;3.13;;
10715;SDS011;5409;42.620;23.316;2023-07-20T04:34:02;6.32;;;2.92;;
10715;SDS011;5409;42.620;23.316;2023-07-20T04:36:29;5.25;;;3.00;;
10715;SDS011;5409;42.620;23.316;2023-07-20T04:38:57;7.30;;;2.60;;
10715;SDS011;5409;42.620;23.316;2023-07-20T04:41:23;8.50;;;2.78;;
10715;SDS011;5409;42.620;23.316;2023-07-20T04:43:51;10.40;;;3.42;;
10715;SDS011;5409;42.620;23.316;2023-07-20T04:46:18;8.18;;;3.13;;
10715;SDS011;5409;42.620;23.316;2023-07-20T04:48:46;4.82;;;3.00;;
10715;SDS011;5409;42.620;23.316;2023-07-20T04:51:13;6.20;;;3.10;;
10715;SDS011;5409;42.620;23.316;2023-07-20T04:53:39;7.18;;;3.42;;
10715;SDS011;5409;42.620;23.316;2023-07-20T04:56:07;7.53;;;2.90;;
10715;SDS011;5409;42.620;23.316;2023-07-20T04:58:35;7.90;;;3.13;;
10715;SDS011;5409;42.620;23.316;2023-07-20T05:01:02;5.97;;;3.35;;
10715;SDS011;5409;42.620;23.316;2023-07-20T05:03:29;11.25;;;3.10;;
10715;SDS011;5409;42.620;23.316;2023-07-20T05:05:56;9.85;;;3.53;;
10715;SDS011;5409;42.620;23.316;2023-07-20T05:08:23;11.23;;;3.25;;
10715;SDS011;5409;42.620;23.316;2023-07-20T05:10:50;13.32;;;3.35;;
10715;SDS011;5409;42.620;23.316;2023-07-20T05:13:18;10.88;;;3.30;;
10715;SDS011;5409;42.620;23.316;2023-07-20T05:15:45;8.30;;;3.35;;
10715;SDS011;5409;42.620;23.316;2023-07-20T05:18:11;8.10;;;3.70;;
10715;SDS011;5409;42.620;23.316;2023-07-20T05:20:38;11.10;;;3.70;;
10715;SDS011;5409;42.620;23.316;2023-07-20T05:23:05;11.40;;;3.55;;
10715;SDS011;5409;42.620;23.316;2023-07-20T05:25:31;8.45;;;3.13;;
10715;SDS011;5409;42.620;23.316;2023-07-20T05:27:59;7.05;;;3.20;;
10715;SDS011;5409;42.620;23.316;2023-07-20T05:30:27;10.93;;;3.40;;
10715;SDS011;5409;42.620;23.316;2023-07-20T05:33:00;7.07;;;3.10;;
10715;SDS011;5409;42.620;23.316;2023-07-20T05:35:27;7.68;;;3.60;;
10715;SDS011;5409;42.620;23.316;2023-07-20T05:37:54;11.10;;;3.40;;
10715;SDS011;5409;42.620;23.316;2023-07-20T05:40:20;6.63;;;3.47;;
10715;SDS011;5409;42.620;23.316;2023-07-20T05:42:47;11.68;;;3.72;;
10715;SDS011;5409;42.620;23.316;2023-07-20T05:45:17;9.40;;;4.00;;
10715;SDS011;5409;42.620;23.316;2023-07-20T05:47:45;6.63;;;3.40;;
10715;SDS011;5409;42.620;23.316;2023-07-20T05:50:12;9.68;;;3.58;;
10715;SDS011;5409;42.620;23.316;2023-07-20T05:52:39;8.68;;;3.63;;
10715;SDS011;5409;42.620;23.316;2023-07-20T05:55:06;10.88;;;3.85;;
10715;SDS011;5409;42.620;23.316;2023-07-20T05:57:34;7.68;;;2.97;;
10715;SDS011;5409;42.620;23.316;2023-07-20T06:00:05;9.02;;;3.33;;
10715;SDS011;5409;42.620;23.316;2023-07-20T06:02:33;16.83;;;3.65;;
10715;SDS011;5409;42.620;23.316;2023-07-20T06:05:01;6.75;;;3.17;;
10715;SDS011;5409;42.620;23.316;2023-07-20T06:07:28;13.82;;;3.47;;
10715;SDS011;5409;42.620;23.316;2023-07-20T06:09:54;11.10;;;3.67;;
10715;SDS011;5409;42.620;23.316;2023-07-20T06:12:21;6.75;;;3.22;;
10715;SDS011;5409;42.620;23.316;2023-07-20T06:14:48;11.45;;;3.25;;
10715;SDS011;5409;42.620;23.316;2023-07-20T06:17:14;7.43;;;3.38;;
10715;SDS011;5409;42.620;23.316;2023-07-20T06:19:41;9.90;;;3.47;;
10715;SDS011;5409;42.620;23.316;2023-07-20T06:22:10;8.35;;;2.60;;
10715;SDS011;5409;42.620;23.316;2023-07-20T06:24:36;8.88;;;3.05;;
10715;SDS011;5409;42.620;23.316;2023-07-20T06:27:03;9.05;;;3.00;;
10715;SDS011;5409;42.620;23.316;2023-07-20T06:29:31;7.93;;;2.97;;
10715;SDS011;5409;42.620;23.316;2023-07-20T06:31:57;8.57;;;2.80;;
10715;SDS011;5409;42.620;23.316;2023-07-20T06:34:24;10.27;;;3.20;;
10715;SDS011;5409;42.620;23.316;2023-07-20T06:36:51;3.83;;;2.90;;
10715;SDS011;5409;42.620;23.316;2023-07-20T06:39:19;12.98;;;3.45;;
10715;SDS011;5409;42.620;23.316;2023-07-20T06:41:46;9.02;;;3.00;;
10715;SDS011;5409;42.620;23.316;2023-07-20T06:44:13;10.13;;;3.35;;
10715;SDS011;5409;42.620;23.316;2023-07-20T06:46:40;10.52;;;4.00;;
10715;SDS011;5409;42.620;23.316;2023-07-20T06:49:07;21.75;;;5.10;;
10715;SDS011;5409;42.620;23.316;2023-07-20T06:51:33;11.77;;;2.58;;
10715;SDS011;5409;42.620;23.316;2023-07-20T06:54:01;5.38;;;2.45;;
10715;SDS011;5409;42.620;23.316;2023-07-20T06:56:31;8.30;;;3.10;;
10715;SDS011;5409;42.620;23.316;2023-07-20T06:58:57;8.15;;;2.85;;
10715;SDS011;5409;42.620;23.316;2023-07-20T07:01:24;7.63;;;3.33;;
10715;SDS011;5409;42.620;23.316;2023-07-20T07:03:51;6.90;;;3.50;;
10715;SDS011;5409;42.620;23.316;2023-07-20T07:06:17;12.40;;;3.15;;
10715;SDS011;5409;42.620;23.316;2023-07-20T07:08:46;9.50;;;3.17;;
10715;SDS011;5409;42.620;23.316;2023-07-20T07:11:12;7.82;;;3.20;;
10715;SDS011;5409;42.620;23.316;2023-07-20T07:13:41;21.63;;;4.13;;
10715;SDS011;5409;42.620;23.316;2023-07-20T07:16:07;9.80;;;3.10;;
10715;SDS011;5409;42.620;23.316;2023-07-20T07:18:34;14.07;;;3.58;;
10715;SDS011;5409;42.620;23.316;2023-07-20T07:21:01;9.48;;;3.53;;
10715;SDS011;5409;42.620;23.316;2023-07-20T07:23:27;10.38;;;3.50;;
10715;SDS011;5409;42.620;23.316;2023-07-20T07:25:54;10.43;;;3.13;;
10715;SDS011;5409;42.620;23.316;2023-07-20T07:28:21;11.80;;;4.15;;
10715;SDS011;5409;42.620;23.316;2023-07-20T07:30:49;11.13;;;3.45;;
10715;SDS011;5409;42.620;23.316;2023-07-20T07:33:16;8.02;;;3.33;;
10715;SDS011;5409;42.620;23.316;2023-07-20T07:35:42;10.68;;;2.70;;
10715;SDS011;5409;42.620;23.316;2023-07-20T07:38:09;9.30;;;3.20;;
10715;SDS011;5409;42.620;23.316;2023-07-20T07:40:36;8.18;;;3.25;;
10715;SDS011;5409;42.620;23.316;2023-07-20T07:43:03;8.07;;;3.75;;
10715;SDS011;5409;42.620;23.316;2023-07-20T07:45:29;6.85;;;3.40;;
10715;SDS011;5409;42.620;23.316;2023-07-20T07:47:58;14.00;;;3.95;;
10715;SDS011;5409;42.620;23.316;2023-07-20T07:50:24;9.95;;;3.85;;
10715;SDS011;5409;42.620;23.316;2023-07-20T07:52:52;14.40;;;3.90;;
10715;SDS011;5409;42.620;23.316;2023-07-20T07:55:19;20.67;;;5.22;;
10715;SDS011;5409;42.620;23.316;2023-07-20T07:57:45;7.93;;;3.80;;
10715;SDS011;5409;42.620;23.316;2023-07-20T08:00:13;12.98;;;4.20;;
10715;SDS011;5409;42.620;23.316;2023-07-20T08:02:43;15.00;;;4.30;;
10715;SDS011;5409;42.620;23.316;2023-07-20T08:05:13;9.60;;;4.00;;
10715;SDS011;5409;42.620;23.316;2023-07-20T08:07:39;10.75;;;4.47;;
10715;SDS011;5409;42.620;23.316;2023-07-20T08:10:07;11.10;;;4.13;;
10715;SDS011;5409;42.620;23.316;2023-07-20T08:12:34;18.08;;;4.00;;
10715;SDS011;5409;42.620;23.316;2023-07-20T08:15:01;10.85;;;4.40;;
10715;SDS011;5409;42.620;23.316;2023-07-20T08:17:29;10.57;;;4.35;;
10715;SDS011;5409;42.620;23.316;2023-07-20T08:19:55;10.95;;;4.00;;
10715;SDS011;5409;42.620;23.316;2023-07-20T08:22:23;12.02;;;3.63;;
10715;SDS011;5409;42.620;23.316;2023-07-20T08:24:51;10.82;;;3.38;;
10715;SDS011;5409;42.620;23.316;2023-07-20T08:27:17;9.38;;;3.50;;
10715;SDS011;5409;42.620;23.316;2023-07-20T08:29:44;9.27;;;3.53;;
10715;SDS011;5409;42.620;23.316;2023-07-20T08:32:11;8.75;;;3.08;;
10715;SDS011;5409;42.620;23.316;2023-07-20T08:34:38;5.93;;;2.72;;
10715;SDS011;5409;42.620;23.316;2023-07-20T08:37:05;6.70;;;2.67;;
10715;SDS011;5409;42.620;23.316;2023-07-20T08:39:37;8.02;;;2.67;;
10715;SDS011;5409;42.620;23.316;2023-07-20T08:42:04;7.55;;;3.03;;
10715;SDS011;5409;42.620;23.316;2023-07-20T08:44:32;5.22;;;2.50;;
10715;SDS011;5409;42.620;23.316;2023-07-20T08:46:59;9.50;;;2.47;;
10715;SDS011;5409;42.620;23.316;2023-07-20T08:49:28;9.70;;;2.67;;
10715;SDS011;5409;42.620;23.316;2023-07-20T08:51:57;6.45;;;2.47;;
10715;SDS011;5409;42.620;23.316;2023-07-20T08:54:25;9.50;;;2.70;;
10715;SDS011;5409;42.620;23.316;2023-07-20T08:56:59;7.18;;;2.40;;
10715;SDS011;5409;42.620;23.316;2023-07-20T08:59:28;6.22;;;2.38;;
10715;SDS011;5409;42.620;23.316;2023-07-20T09:01:56;6.97;;;2.42;;
10715;SDS011;5409;42.620;23.316;2023-07-20T09:04:24;5.95;;;2.35;;
10715;SDS011;5409;42.620;23.316;2023-07-20T09:06:50;10.00;;;3.25;;
10715;SDS011;5409;42.620;23.316;2023-07-20T09:09:18;35.33;;;3.50;;
10715;SDS011;5409;42.620;23.316;2023-07-20T09:11:46;22.55;;;3.25;;
10715;SDS011;5409;42.620;23.316;2023-07-20T09:14:15;7.07;;;2.30;;
10715;SDS011;5409;42.620;23.316;2023-07-20T09:16:47;4.72;;;2.53;;
10715;SDS011;5409;42.620;23.316;2023-07-20T09:19:15;9.35;;;2.83;;
10715;SDS011;5409;42.620;23.316;2023-07-20T09:21:43;7.65;;;2.33;;
10715;SDS011;5409;42.620;23.316;2023-07-20T09:24:11;8.73;;;2.45;;
10715;SDS011;5409;42.620;23.316;2023-07-20T09:26:40;7.70;;;2.45;;
10715;SDS011;5409;42.620;23.316;2023-07-20T09:29:08;7.32;;;2.50;;
10715;SDS011;5409;42.620;23.316;2023-07-20T09:31:37;4.80;;;2.40;;
10715;SDS011;5409;42.620;23.316;2023-07-20T09:34:05;9.38;;;2.85;;
10715;SDS011;5409;42.620;23.316;2023-07-20T09:36:33;8.20;;;2.10;;
10715;SDS011;5409;42.620;23.316;2023-07-20T09:38:59;6.55;;;2.50;;
10715;SDS011;5409;42.620;23.316;2023-07-20T09:41:27;7.22;;;1.98;;
10715;SDS011;5409;42.620;23.316;2023-07-20T09:43:53;8.13;;;2.35;;
10715;SDS011;5409;42.620;23.316;2023-07-20T09:46:20;12.93;;;2.58;;
10715;SDS011;5409;42.620;23.316;2023-07-20T09:48:55;7.40;;;2.20;;
10715;SDS011;5409;42.620;23.316;2023-07-20T09:51:22;7.07;;;2.40;;
10715;SDS011;5409;42.620;23.316;2023-07-20T09:53:49;9.32;;;2.45;;
10715;SDS011;5409;42.620;23.316;2023-07-20T09:56:20;5.60;;;2.13;;
10715;SDS011;5409;42.620;23.316;2023-07-20T09:58:48;7.47;;;2.58;;
10715;SDS011;5409;42.620;23.316;2023-07-20T10:01:16;8.35;;;2.15;;
10715;SDS011;5409;42.620;23.316;2023-07-20T10:03:46;7.28;;;2.33;;
10715;SDS011;5409;42.620;23.316;2023-07-20T10:06:20;8.68;;;2.40;;
10715;SDS011;5409;42.620;23.316;2023-07-20T10:08:49;7.35;;;2.30;;
10715;SDS011;5409;42.620;23.316;2023-07-20T10:11:19;5.47;;;2.35;;
10715;SDS011;5409;42.620;23.316;2023-07-20T10:13:51;7.65;;;2.17;;
10715;SDS011;5409;42.620;23.316;2023-07-20T10:16:21;4.65;;;1.98;;
10715;SDS011;5409;42.620;23.316;2023-07-20T10:18:54;4.45;;;2.05;;
10715;SDS011;5409;42.620;23.316;2023-07-20T10:21:33;4.70;;;2.10;;
10715;SDS011;5409;42.620;23.316;2023-07-20T10:24:03;4.80;;;2.30;;
10715;SDS011;5409;42.620;23.316;2023-07-20T10:26:32;10.93;;;2.58;;
10715;SDS011;5409;42.620;23.316;2023-07-20T10:28:59;4.47;;;1.92;;
10715;SDS011;5409;42.620;23.316;2023-07-20T10:31:27;5.70;;;2.25;;
10715;SDS011;5409;42.620;23.316;2023-07-20T10:33:55;4.00;;;2.08;;
10715;SDS011;5409;42.620;23.316;2023-07-20T10:36:26;7.75;;;2.42;;
10715;SDS011;5409;42.620;23.316;2023-07-20T10:38:56;5.72;;;2.10;;
10715;SDS011;5409;42.620;23.316;2023-07-20T10:41:27;9.98;;;2.80;;
10715;SDS011;5409;42.620;23.316;2023-07-20T10:43:57;8.10;;;2.13;;
10715;SDS011;5409;42.620;23.316;2023-07-20T10:46:34;11.70;;;2.70;;
10715;SDS011;5409;42.620;23.316;2023-07-20T10:49:09;7.28;;;3.28;;
10715;SDS011;5409;42.620;23.316;2023-07-20T10:51:39;4.47;;;3.10;;
10715;SDS011;5409;42.620;23.316;2023-07-20T10:54:09;7.72;;;3.00;;
10715;SDS011;5409;42.620;23.316;2023-07-20T10:56:56;8.00;;;3.20;;
10715;SDS011;5409;42.620;23.316;2023-07-20T10:59:43;9.88;;;3.42;;
10715;SDS011;5409;42.620;23.316;2023-07-20T11:02:13;10.35;;;4.32;;
10715;SDS011;5409;42.620;23.316;2023-07-20T11:04:45;5.88;;;3.80;;
10715;SDS011;5409;42.620;23.316;2023-07-20T11:07:15;7.80;;;3.92;;
10715;SDS011;5409;42.620;23.316;2023-07-20T11:09:43;5.80;;;2.80;;
10715;SDS011;5409;42.620;23.316;2023-07-20T11:12:11;8.93;;;3.10;;
10715;SDS011;5409;42.620;23.316;2023-07-20T11:14:40;5.32;;;2.53;;
10715;SDS011;5409;42.620;23.316;2023-07-20T11:17:10;7.47;;;2.70;;
10715;SDS011;5409;42.620;23.316;2023-07-20T11:19:38;9.63;;;3.10;;
10715;SDS011;5409;42.620;23.316;2023-07-20T11:22:05;7.22;;;2.58;;
10715;SDS011;5409;42.620;23.316;2023-07-20T11:24:34;5.90;;;2.90;;
10715;SDS011;5409;42.620;23.316;2023-07-20T11:27:05;7.43;;;2.88;;
10715;SDS011;5409;42.620;23.316;2023-07-20T11:29:32;7.93;;;3.05;;
10715;SDS011;5409;42.620;23.316;2023-07-20T11:32:01;5.95;;;3.33;;
10715;SDS011;5409;42.620;23.316;2023-07-20T11:34:30;5.57;;;3.05;;
10715;SDS011;5409;42.620;23.316;2023-07-20T11:36:57;15.23;;;3.42;;
10715;SDS011;5409;42.620;23.316;2023-07-20T11:39:25;14.13;;;3.30;;
10715;SDS011;5409;42.620;23.316;2023-07-20T11:41:52;6.60;;;3.35;;
10715;SDS011;5409;42.620;23.316;2023-07-20T11:44:21;6.72;;;3.08;;
10715;SDS011;5409;42.620;23.316;2023-07-20T11:46:59;8.95;;;3.35;;
10715;SDS011;5409;42.620;23.316;2023-07-20T11:49:27;11.85;;;3.30;;
10715;SDS011;5409;42.620;23.316;2023-07-20T11:51:54;10.52;;;3.45;;
10715;SDS011;5409;42.620;23.316;2023-07-20T11:54:21;8.82;;;3.85;;
10715;SDS011;5409;42.620;23.316;2023-07-20T11:56:53;6.95;;;4.03;;
10715;SDS011;5409;42.620;23.316;2023-07-20T11:59:20;7.82;;;4.00;;
10715;SDS011;5409;42.620;23.316;2023-07-20T12:01:48;7.22;;;3.78;;
10715;SDS011;5409;42.620;23.316;2023-07-20T12:04:14;8.60;;;3.88;;
10715;SDS011;5409;42.620;23.316;2023-07-20T12:06:41;8.57;;;4.00;;
10715;SDS011;5409;42.620;23.316;2023-07-20T12:09:12;8.57;;;3.97;;
10715;SDS011;5409;42.620;23.316;2023-07-20T12:11:42;12.20;;;3.83;;
10715;SDS011;5409;42.620;23.316;2023-07-20T12:14:09;7.80;;;3.88;;
10715;SDS011;5409;42.620;23.316;2023-07-20T12:16:38;13.10;;;3.90;;
10715;SDS011;5409;42.620;23.316;2023-07-20T12:19:05;9.60;;;4.35;;
10715;SDS011;5409;42.620;23.316;2023-07-20T12:21:34;10.20;;;3.65;;
10715;SDS011;5409;42.620;23.316;2023-07-20T12:24:02;8.85;;;3.33;;
10715;SDS011;5409;42.620;23.316;2023-07-20T12:26:29;19.38;;;4.55;;
10715;SDS011;5409;42.620;23.316;2023-07-20T12:28:57;7.28;;;3.55;;
10715;SDS011;5409;42.620;23.316;2023-07-20T12:31:24;6.30;;;3.65;;
10715;SDS011;5409;42.620;23.316;2023-07-20T12:33:53;6.05;;;2.80;;
10715;SDS011;5409;42.620;23.316;2023-07-20T12:36:21;9.30;;;3.08;;
10715;SDS011;5409;42.620;23.316;2023-07-20T12:38:48;8.25;;;3.70;;
10715;SDS011;5409;42.620;23.316;2023-07-20T12:41:15;5.55;;;2.88;;
10715;SDS011;5409;42.620;23.316;2023-07-20T12:43:41;6.50;;;2.85;;
10715;SDS011;5409;42.620;23.316;2023-07-20T12:46:09;8.10;;;2.80;;
10715;SDS011;5409;42.620;23.316;2023-07-20T12:48:38;9.20;;;2.97;;
10715;SDS011;5409;42.620;23.316;2023-07-20T12:51:08;4.68;;;2.50;;
10715;SDS011;5409;42.620;23.316;2023-07-20T12:53:37;7.13;;;2.92;;
10715;SDS011;5409;42.620;23.316;2023-07-20T12:56:04;7.13;;;2.92;;
10715;SDS011;5409;42.620;23.316;2023-07-20T12:58:31;7.80;;;3.15;;
10715;SDS011;5409;42.620;23.316;2023-07-20T13:00:58;10.38;;;2.72;;
10715;SDS011;5409;42.620;23.316;2023-07-20T13:03:24;25.98;;;4.22;;
10715;SDS011;5409;42.620;23.316;2023-07-20T13:05:51;8.60;;;2.78;;
10715;SDS011;5409;42.620;23.316;2023-07-20T13:08:19;6.43;;;2.97;;
10715;SDS011;5409;42.620;23.316;2023-07-20T13:10:50;11.77;;;3.05;;
10715;SDS011;5409;42.620;23.316;2023-07-20T13:13:17;5.32;;;2.50;;
10715;SDS011;5409;42.620;23.316;2023-07-20T13:15:44;4.90;;;2.45;;
10715;SDS011;5409;42.620;23.316;2023-07-20T13:18:12;7.07;;;2.90;;
10715;SDS011;5409;42.620;23.316;2023-07-20T13:20:39;7.93;;;2.35;;
10715;SDS011;5409;42.620;23.316;2023-07-20T13:23:06;8.85;;;3.17;;
10715;SDS011;5409;42.620;23.316;2023-07-20T13:25:34;5.97;;;2.85;;
10715;SDS011;5409;42.620;23.316;2023-07-20T13:28:01;5.15;;;2.42;;
10715;SDS011;5409;42.620;23.316;2023-07-20T13:30:28;8.30;;;3.20;;
10715;SDS011;5409;42.620;23.316;2023-07-20T13:32:55;9.07;;;3.08;;
10715;SDS011;5409;42.620;23.316;2023-07-20T13:35:22;8.23;;;2.72;;
10715;SDS011;5409;42.620;23.316;2023-07-20T13:37:48;8.98;;;2.63;;
10715;SDS011;5409;42.620;23.316;2023-07-20T13:40:15;5.78;;;2.63;;
10715;SDS011;5409;42.620;23.316;2023-07-20T13:42:45;10.38;;;2.72;;
10715;SDS011;5409;42.620;23.316;2023-07-20T13:45:11;8.27;;;2.40;;
10715;SDS011;5409;42.620;23.316;2023-07-20T13:47:38;10.40;;;2.15;;
10715;SDS011;5409;42.620;23.316;2023-07-20T13:50:05;8.68;;;2.40;;
10715;SDS011;5409;42.620;23.316;2023-07-20T13:52:33;8.45;;;2.15;;
10715;SDS011;5409;42.620;23.316;2023-07-20T13:55:00;5.65;;;2.30;;
10715;SDS011;5409;42.620;23.316;2023-07-20T13:57:27;8.13;;;2.67;;
10715;SDS011;5409;42.620;23.316;2023-07-20T13:59:55;5.55;;;2.40;;
10715;SDS011;5409;42.620;23.316;2023-07-20T14:02:22;7.85;;;2.28;;
10715;SDS011;5409;42.620;23.316;2023-07-20T14:04:49;9.52;;;2.67;;
10715;SDS011;5409;42.620;23.316;2023-07-20T14:07:15;13.23;;;2.70;;
10715;SDS011;5409;42.620;23.316;2023-07-20T14:09:42;13.07;;;2.42;;
10715;SDS011;5409;42.620;23.316;2023-07-20T14:12:09;8.57;;;2.47;;
10715;SDS011;5409;42.620;23.316;2023-07-20T14:14:39;8.98;;;2.45;;
10715;SDS011;5409;42.620;23.316;2023-07-20T14:17:07;7.85;;;2.00;;
10715;SDS011;5409;42.620;23.316;2023-07-20T14:19:34;6.90;;;2.45;;
10715;SDS011;5409;42.620;23.316;2023-07-20T14:22:02;4.65;;;2.40;;
10715;SDS011;5409;42.620;23.316;2023-07-20T14:24:29;7.30;;;2.25;;
10715;SDS011;5409;42.620;23.316;2023-07-20T14:26:56;5.38;;;2.17;;
10715;SDS011;5409;42.620;23.316;2023-07-20T14:29:23;5.05;;;2.03;;
10715;SDS011;5409;42.620;23.316;2023-07-20T14:31:49;6.72;;;1.98;;
10715;SDS011;5409;42.620;23.316;2023-07-20T14:34:19;7.63;;;2.38;;
10715;SDS011;5409;42.620;23.316;2023-07-20T14:36:45;3.83;;;1.80;;
10715;SDS011;5409;42.620;23.316;2023-07-20T14:39:12;6.25;;;2.35;;
10715;SDS011;5409;42.620;23.316;2023-07-20T14:41:39;8.73;;;2.05;;
10715;SDS011;5409;42.620;23.316;2023-07-20T14:44:05;6.03;;;2.20;;
10715;SDS011;5409;42.620;23.316;2023-07-20T14:46:32;7.13;;;2.40;;
10715;SDS011;5409;42.620;23.316;2023-07-20T14:48:59;13.07;;;2.63;;
10715;SDS011;5409;42.620;23.316;2023-07-20T14:51:28;6.68;;;2.20;;
10715;SDS011;5409;42.620;23.316;2023-07-20T14:53:58;4.75;;;2.00;;